Time;durP1;ratioP1;P1;durP2;ratioP2;P2;SDS_P1;SDS_P2;PMS_P1;PMS_P2;Temp;Humidity;BMP_temperature;BMP_pressure;BME280_temperature;BME280_humidity;BME280_pressure;Samples;Min_cycle;Max_cycle;Signal;HPM_P1;HPM_P2
2022/10/24 00:01:41;;;;;;;1.30;0.50;;;14.10;99.90;;;;;;5056138;28;20135;-88
2022/10/24 00:04:06;;;;;;;2.05;0.70;;;14.10;99.90;;;;;;5073989;28;20094;-88
2022/10/24 00:06:32;;;;;;;2.40;0.75;;;14.10;99.90;;;;;;5073415;28;20089;-90
2022/10/24 00:08:58;;;;;;;2.63;0.50;;;14.20;99.90;;;;;;5055160;28;20043;-88
2022/10/24 00:11:26;;;;;;;0.93;0.47;;;14.20;99.90;;;;;;5056149;28;20602;-88
2022/10/24 00:13:54;;;;;;;0.60;0.50;;;14.20;99.90;;;;;;5073791;28;20043;-89
2022/10/24 00:16:20;;;;;;;3.88;0.60;;;14.20;99.90;;;;;;5073037;28;20040;-89
2022/10/24 00:18:46;;;;;;;1.45;0.50;;;14.20;99.90;;;;;;5073798;28;20036;-90
2022/10/24 00:21:12;;;;;;;1.83;0.60;;;14.20;99.90;;;;;;5073581;28;20116;-89
2022/10/24 00:23:38;;;;;;;2.17;0.60;;;14.20;99.90;;;;;;5073583;28;20471;-88
2022/10/24 00:26:05;;;;;;;1.02;0.50;;;14.20;99.90;;;;;;5055634;28;20524;-87
2022/10/24 00:28:33;;;;;;;2.03;0.50;;;14.20;99.90;;;;;;5054556;28;20064;-88
2022/10/24 00:30:59;;;;;;;1.35;0.65;;;14.20;99.90;;;;;;5073250;28;20037;-90
2022/10/24 00:33:25;;;;;;;1.25;0.80;;;14.50;99.90;;;;;;5054010;28;20040;-89
2022/10/24 00:35:51;;;;;;;1.30;0.50;;;14.10;99.90;;;;;;5054929;28;20499;-88
2022/10/24 00:38:17;;;;;;;1.13;0.50;;;14.10;99.90;;;;;;5072536;28;20489;-90
2022/10/24 00:40:43;;;;;;;1.60;0.57;;;14.10;99.90;;;;;;5054810;28;20063;-88
2022/10/24 00:43:21;;;;;;;1.23;0.50;;;14.30;99.90;;;;;;5073092;28;20183;-88
2022/10/24 00:45:54;;;;;;;0.85;0.40;;;14.10;99.90;;;;;;5054801;28;20173;-91
2022/10/24 00:48:34;;;;;;;1.25;0.50;;;14.00;99.90;;;;;;5054269;28;20489;-88
2022/10/24 00:51:07;;;;;;;0.90;0.40;;;14.00;99.90;;;;;;5072933;28;20044;-88
2022/10/24 00:53:37;;;;;;;2.63;0.40;;;13.90;99.90;;;;;;5054805;28;20051;-88
2022/10/24 00:56:04;;;;;;;1.27;0.43;;;14.40;99.90;;;;;;5072352;28;20045;-89
2022/10/24 00:58:32;;;;;;;1.63;0.40;;;14.10;99.90;;;;;;5072663;28;20044;-90
2022/10/24 01:00:59;;;;;;;1.15;0.40;;;14.00;99.90;;;;;;5072485;28;20536;-88
2022/10/24 01:03:25;;;;;;;1.83;0.50;;;14.30;99.90;;;;;;5054879;28;20040;-89
2022/10/24 01:06:08;;;;;;;1.73;0.40;;;13.90;99.90;;;;;;5072229;28;20041;-90
2022/10/24 01:08:34;;;;;;;1.98;0.40;;;13.90;99.90;;;;;;5054188;28;20045;-88
2022/10/24 01:11:12;;;;;;;1.55;0.50;;;13.90;99.90;;;;;;5072815;28;20044;-88
2022/10/24 01:13:56;;;;;;;1.75;1.02;;;13.90;99.90;;;;;;5072447;28;20045;-87
2022/10/24 01:16:45;;;;;;;0.85;0.40;;;13.90;99.90;;;;;;5048690;28;20487;-91
2022/10/24 01:19:33;;;;;;;3.92;0.40;;;13.80;99.90;;;;;;5070903;28;20044;-87
2022/10/24 01:22:05;;;;;;;0.38;0.20;;;13.80;99.90;;;;;;5072208;28;20086;-89
2022/10/24 01:24:40;;;;;;;0.50;0.20;;;13.80;99.90;;;;;;5054206;28;20127;-89
2022/10/24 01:27:12;;;;;;;1.98;0.40;;;13.70;99.90;;;;;;5071984;28;20051;-88
2022/10/24 01:29:48;;;;;;;0.50;0.22;;;13.70;99.90;;;;;;5071035;28;20105;-90
2022/10/24 01:32:34;;;;;;;0.32;0.20;;;13.60;99.90;;;;;;5054084;28;20052;-87
2022/10/24 01:35:10;;;;;;;0.15;0.15;;;13.60;99.90;;;;;;5071638;28;20088;-87
2022/10/24 01:37:40;;;;;;;0.98;0.30;;;13.60;99.90;;;;;;5053636;28;20124;-90
2022/10/24 01:40:19;;;;;;;1.75;0.47;;;13.60;99.90;;;;;;5071842;28;20045;-88
2022/10/24 01:42:47;;;;;;;0.35;0.22;;;13.50;99.90;;;;;;5072548;28;20045;-91
2022/10/24 01:45:18;;;;;;;1.55;0.40;;;13.50;99.90;;;;;;5071436;28;20516;-87
2022/10/24 01:47:49;;;;;;;0.85;0.20;;;13.50;99.90;;;;;;5054186;28;20425;-89
2022/10/24 01:50:17;;;;;;;0.73;0.28;;;13.50;99.90;;;;;;5070548;28;20049;-87
2022/10/24 01:52:45;;;;;;;0.30;0.10;;;13.60;99.90;;;;;;5072060;28;20036;-90
2022/10/24 01:55:11;;;;;;;0.55;0.30;;;13.50;99.90;;;;;;5053016;28;20052;-88
2022/10/24 01:57:38;;;;;;;0.13;0.10;;;13.60;99.90;;;;;;5054878;28;20044;-87
2022/10/24 02:00:07;;;;;;;1.50;0.20;;;13.60;99.90;;;;;;5075536;28;20041;-90
2022/10/24 02:02:41;;;;;;;0.68;0.30;;;13.60;99.90;;;;;;5057098;28;20377;-89
2022/10/24 02:05:36;;;;;;;0.50;0.30;;;13.70;99.90;;;;;;5058150;28;20049;-87
2022/10/24 02:08:09;;;;;;;0.57;0.30;;;13.70;99.90;;;;;;5065884;28;20171;-87
2022/10/24 02:10:39;;;;;;;0.68;0.30;;;13.70;99.90;;;;;;5057816;28;20041;-89
2022/10/24 02:13:14;;;;;;;0.50;0.32;;;13.80;99.90;;;;;;5075637;28;20044;-89
2022/10/24 02:15:45;;;;;;;0.60;0.40;;;14.40;99.90;;;;;;5075642;28;20399;-87
2022/10/24 02:18:12;;;;;;;1.52;0.43;;;13.90;99.90;;;;;;5057040;28;20072;-88
2022/10/24 02:20:52;;;;;;;1.67;0.43;;;13.90;99.90;;;;;;5058405;28;20052;-88
2022/10/24 02:23:30;;;;;;;0.93;0.30;;;14.00;99.90;;;;;;5058210;28;20078;-86
2022/10/24 02:25:59;;;;;;;0.95;0.40;;;14.00;99.90;;;;;;5075926;28;20084;-88
2022/10/24 02:28:39;;;;;;;0.40;0.30;;;14.00;99.90;;;;;;5057191;28;20082;-87
2022/10/24 02:31:16;;;;;;;0.68;0.30;;;14.00;99.90;;;;;;5052813;28;20366;-88
2022/10/24 02:33:44;;;;;;;0.52;0.35;;;14.10;99.90;;;;;;5074017;28;20043;-90
2022/10/24 02:36:12;;;;;;;2.17;0.40;;;14.10;99.90;;;;;;5074842;28;20504;-88
2022/10/24 02:38:41;;;;;;;0.30;0.20;;;13.70;99.90;;;;;;5074617;28;20102;-93
2022/10/24 02:41:11;;;;;;;0.75;0.40;;;14.10;99.90;;;;;;5056849;28;20083;-91
2022/10/24 02:43:39;;;;;;;1.02;0.45;;;14.30;99.90;;;;;;5057559;28;20079;-90
2022/10/24 02:46:07;;;;;;;0.85;0.40;;;14.20;99.90;;;;;;5075564;28;20397;-89
2022/10/24 02:48:37;;;;;;;1.00;0.40;;;14.10;99.90;;;;;;5074262;28;20080;-88
2022/10/24 02:51:04;;;;;;;1.02;0.45;;;14.20;99.90;;;;;;5075112;28;20041;-91
2022/10/24 02:53:30;;;;;;;3.42;0.50;;;14.20;99.90;;;;;;5074447;28;20106;-87
2022/10/24 02:55:56;;;;;;;0.50;0.38;;;14.20;99.90;;;;;;5058017;28;20397;-87
2022/10/24 02:58:21;;;;;;;0.75;0.38;;;14.10;99.90;;;;;;5056700;28;20526;-87
2022/10/24 03:00:47;;;;;;;2.67;0.38;;;14.20;99.90;;;;;;5074388;28;20099;-90
2022/10/24 03:03:13;;;;;;;1.27;0.32;;;14.20;99.90;;;;;;5057014;28;20045;-89
2022/10/24 03:05:38;;;;;;;1.02;0.40;;;14.50;99.90;;;;;;5056480;28;20496;-89
2022/10/24 03:08:04;;;;;;;2.47;0.35;;;14.20;99.90;;;;;;5055912;28;20067;-87
2022/10/24 03:10:30;;;;;;;2.03;1.15;;;14.20;99.90;;;;;;5056145;28;20044;-86
2022/10/24 03:12:56;;;;;;;3.88;0.50;;;14.20;99.90;;;;;;5056358;28;20041;-87
2022/10/24 03:15:22;;;;;;;1.10;0.30;;;14.20;99.90;;;;;;5057203;28;20378;-90
2022/10/24 03:17:48;;;;;;;0.77;0.30;;;14.10;99.90;;;;;;5074393;28;20432;-90
2022/10/24 03:20:14;;;;;;;3.38;0.77;;;14.10;99.90;;;;;;5073981;28;20032;-91
2022/10/24 03:22:40;;;;;;;0.80;0.40;;;14.10;99.90;;;;;;5056759;28;20048;-89
2022/10/24 03:25:06;;;;;;;6.20;0.70;;;14.20;99.90;;;;;;5052841;28;20064;-89
2022/10/24 03:27:32;;;;;;;0.38;0.38;;;14.20;99.90;;;;;;5054768;28;20092;-90
2022/10/24 03:29:59;;;;;;;0.90;0.45;;;14.20;99.90;;;;;;5053989;28;20045;-93
2022/10/24 03:32:25;;;;;;;1.15;0.35;;;14.30;99.90;;;;;;5054597;28;20075;-92
2022/10/24 03:34:51;;;;;;;2.65;0.60;;;14.30;99.90;;;;;;5054109;28;20045;-87
2022/10/24 03:37:17;;;;;;;0.63;0.40;;;14.40;99.90;;;;;;5052234;28;20063;-89
2022/10/24 03:39:43;;;;;;;2.70;0.50;;;14.40;99.90;;;;;;5053757;28;20044;-87
2022/10/24 03:42:09;;;;;;;0.57;0.38;;;14.40;99.90;;;;;;5054089;28;20051;-91
2022/10/24 03:44:35;;;;;;;1.08;0.55;;;14.40;99.90;;;;;;5053063;28;20049;-91
2022/10/24 03:47:00;;;;;;;1.98;0.68;;;14.50;99.90;;;;;;5053043;28;20056;-89
2022/10/24 03:49:26;;;;;;;1.98;0.80;;;14.50;99.90;;;;;;5046050;28;20068;-89
2022/10/24 03:51:52;;;;;;;1.50;0.60;;;14.60;99.90;;;;;;5054007;28;20401;-88
2022/10/24 03:54:18;;;;;;;2.28;0.82;;;14.60;99.90;;;;;;5052244;28;20084;-90
2022/10/24 03:56:46;;;;;;;2.95;0.70;;;14.70;99.90;;;;;;5053087;28;20056;-89
2022/10/24 03:59:12;;;;;;;3.33;0.60;;;14.70;99.90;;;;;;5051446;28;20120;-92
2022/10/24 04:01:38;;;;;;;5.55;0.60;;;14.70;99.90;;;;;;5052613;28;20049;-87
2022/10/24 04:04:04;;;;;;;1.30;0.52;;;14.70;99.90;;;;;;5052179;28;20040;-87
2022/10/24 04:06:30;;;;;;;0.93;0.60;;;15.00;99.90;;;;;;5044883;28;20077;-90
2022/10/24 04:08:56;;;;;;;2.15;0.70;;;14.70;99.90;;;;;;5051475;28;20045;-90
2022/10/24 04:11:23;;;;;;;3.42;0.75;;;15.00;99.90;;;;;;5052781;28;20049;-90
2022/10/24 04:13:49;;;;;;;3.30;0.80;;;14.80;99.90;;;;;;5053918;28;20040;-88
2022/10/24 04:16:16;;;;;;;1.27;0.57;;;14.90;99.90;;;;;;5051768;28;20041;-90
2022/10/24 04:18:42;;;;;;;4.15;0.80;;;14.80;99.90;;;;;;5053112;28;20385;-87
2022/10/24 04:21:08;;;;;;;2.75;0.60;;;14.80;99.90;;;;;;5052375;28;20041;-90
2022/10/24 04:23:39;;;;;;;4.10;0.68;;;14.90;99.90;;;;;;5053204;28;20533;-90
2022/10/24 04:26:08;;;;;;;5.78;0.80;;;14.80;99.90;;;;;;5051665;28;20045;-87
2022/10/24 04:28:34;;;;;;;1.40;0.60;;;14.90;99.90;;;;;;5052434;28;20099;-91
2022/10/24 04:31:00;;;;;;;3.53;0.60;;;14.80;99.90;;;;;;5053329;28;20045;-90
2022/10/24 04:33:26;;;;;;;2.58;0.60;;;14.80;99.90;;;;;;5052780;28;20037;-89
2022/10/24 04:35:51;;;;;;;2.63;0.60;;;14.80;99.90;;;;;;5051933;28;20131;-87
2022/10/24 04:38:18;;;;;;;2.40;0.60;;;14.70;99.90;;;;;;5051375;28;20072;-90
2022/10/24 04:40:52;;;;;;;2.22;0.73;;;14.70;99.90;;;;;;5051973;28;20467;-88
2022/10/24 04:43:19;;;;;;;3.55;0.80;;;14.60;99.90;;;;;;5052046;28;20449;-87
2022/10/24 04:45:46;;;;;;;1.40;0.45;;;14.60;99.90;;;;;;5035152;28;20041;-88
2022/10/24 04:48:12;;;;;;;4.20;0.70;;;15.20;99.90;;;;;;5052596;28;20040;-88
2022/10/24 04:50:40;;;;;;;5.05;1.35;;;14.50;99.90;;;;;;5052099;28;20086;-88
2022/10/24 04:53:06;;;;;;;1.50;0.57;;;14.40;99.90;;;;;;5051778;28;20064;-89
2022/10/24 04:55:31;;;;;;;0.95;0.50;;;14.40;99.90;;;;;;5051257;28;20075;-93
2022/10/24 04:57:57;;;;;;;2.58;0.50;;;14.40;99.90;;;;;;5052729;28;20040;-88
2022/10/24 05:00:23;;;;;;;2.35;0.50;;;14.60;99.90;;;;;;5051962;28;20033;-88
2022/10/24 05:02:49;;;;;;;1.45;0.60;;;14.30;99.90;;;;;;5045471;28;20378;-90
2022/10/24 05:12:36;;;;;;;1.70;0.80;;;14.30;99.90;;;;;;5052565;28;20121;-88
2022/10/24 05:15:03;;;;;;;3.47;0.80;;;14.20;99.90;;;;;;5052188;28;20383;-89
2022/10/24 05:17:28;;;;;;;1.95;0.77;;;14.20;99.90;;;;;;5051345;28;20041;-91
2022/10/24 05:19:54;;;;;;;2.45;0.50;;;14.80;99.90;;;;;;5054296;28;20461;-87
2022/10/24 05:22:20;;;;;;;2.50;0.60;;;14.70;99.90;;;;;;5051489;28;20045;-88
2022/10/24 05:24:45;;;;;;;2.47;0.73;;;14.10;99.90;;;;;;5050970;28;20049;-88
2022/10/24 05:27:11;;;;;;;2.53;0.65;;;14.10;99.90;;;;;;5053020;28;20390;-87
2022/10/24 05:29:37;;;;;;;1.65;0.55;;;14.10;99.90;;;;;;5056830;28;20041;-88
2022/10/24 05:32:03;;;;;;;4.32;0.85;;;14.10;99.90;;;;;;5051096;28;20117;-87
2022/10/24 05:34:28;;;;;;;2.90;0.60;;;14.10;99.90;;;;;;5062743;28;20036;-87
2022/10/24 05:36:54;;;;;;;2.65;0.82;;;14.10;99.90;;;;;;5078429;28;20060;-87
2022/10/24 05:39:20;;;;;;;3.00;0.60;;;14.10;99.90;;;;;;5077799;28;20444;-87
2022/10/24 05:41:45;;;;;;;5.68;0.60;;;14.10;99.90;;;;;;5078588;28;20041;-87
2022/10/24 05:44:12;;;;;;;3.03;0.55;;;14.20;99.90;;;;;;5085872;28;20036;-86
2022/10/24 05:46:38;;;;;;;1.70;0.70;;;14.80;99.90;;;;;;5069430;28;20040;-87
2022/10/24 05:49:04;;;;;;;0.90;0.60;;;14.10;99.90;;;;;;5087618;28;20063;-87
2022/10/24 05:51:30;;;;;;;1.55;0.60;;;14.00;99.90;;;;;;5069588;28;20044;-87
2022/10/24 05:53:57;;;;;;;0.77;0.45;;;14.00;99.90;;;;;;5067375;28;20048;-86
2022/10/24 05:56:23;;;;;;;3.45;0.70;;;14.00;99.90;;;;;;5055741;28;20048;-86
2022/10/24 05:58:49;;;;;;;1.40;0.40;;;13.90;99.90;;;;;;5053222;28;20919;-89
2022/10/24 06:01:15;;;;;;;3.85;0.50;;;13.90;99.90;;;;;;5071986;28;20041;-89
2022/10/24 06:03:41;;;;;;;1.17;0.35;;;13.90;99.90;;;;;;5052502;28;20041;-86
2022/10/24 06:06:08;;;;;;;2.67;0.60;;;13.90;99.90;;;;;;5053703;28;20044;-87
2022/10/24 06:08:35;;;;;;;2.72;0.50;;;14.00;99.90;;;;;;5053995;28;20041;-88
2022/10/24 06:11:01;;;;;;;2.20;0.60;;;14.00;99.90;;;;;;5071095;28;20653;-87
2022/10/24 06:13:27;;;;;;;1.45;0.50;;;14.10;99.90;;;;;;5054333;28;20036;-89
2022/10/24 06:15:53;;;;;;;1.88;0.40;;;14.10;99.90;;;;;;5053709;28;20554;-88
2022/10/24 06:18:18;;;;;;;2.55;0.50;;;14.30;99.90;;;;;;5071863;28;20123;-88
2022/10/24 06:20:44;;;;;;;2.53;0.55;;;14.10;99.90;;;;;;5052860;28;20393;-87
2022/10/24 06:23:10;;;;;;;2.40;0.50;;;14.10;99.90;;;;;;5071505;28;20090;-90
2022/10/24 06:25:35;;;;;;;3.17;0.50;;;14.40;99.90;;;;;;5053608;28;20049;-93
2022/10/24 06:28:01;;;;;;;0.93;0.40;;;14.20;99.90;;;;;;5037415;28;20048;-92
2022/10/24 06:30:27;;;;;;;2.22;0.50;;;14.20;99.90;;;;;;5054107;28;20396;-89
2022/10/24 06:32:53;;;;;;;2.13;0.75;;;14.20;99.90;;;;;;5071348;28;20033;-94
2022/10/24 06:35:19;;;;;;;2.50;0.65;;;14.20;99.90;;;;;;5074542;28;20033;-90
2022/10/24 06:37:46;;;;;;;4.57;0.38;;;14.10;99.90;;;;;;5087958;28;20075;-94
2022/10/24 06:40:12;;;;;;;2.13;0.45;;;14.10;99.90;;;;;;5055165;28;20063;-92
2022/10/24 06:42:38;;;;;;;2.97;0.50;;;14.10;99.90;;;;;;5056109;28;20040;-86
2022/10/24 06:45:24;;;;;;;4.90;0.50;;;14.10;99.90;;;;;;5055287;28;20548;-92
2022/10/24 06:47:51;;;;;;;;;;;14.60;99.90;;;;;;5079416;28;20056;-87
2022/10/24 06:50:17;;;;;;;2.55;0.38;;;14.30;99.90;;;;;;5066345;28;19920;-88
2022/10/24 06:52:43;;;;;;;2.20;0.50;;;14.20;99.90;;;;;;5057586;28;20511;-88
2022/10/24 06:55:09;;;;;;;3.35;0.65;;;14.20;99.90;;;;;;5057569;28;20076;-91
2022/10/24 06:57:34;;;;;;;1.15;0.50;;;14.60;99.90;;;;;;5076851;28;20059;-90
2022/10/24 07:00:00;;;;;;;2.05;0.32;;;14.30;99.90;;;;;;5074132;28;20033;-92
2022/10/24 07:02:26;;;;;;;4.15;0.57;;;14.30;99.90;;;;;;5074074;28;20480;-92
2022/10/24 07:04:52;;;;;;;0.70;0.20;;;14.40;99.90;;;;;;5057403;28;20076;-89
2022/10/24 07:07:21;;;;;;;2.15;0.50;;;14.50;99.90;;;;;;5058257;28;20076;-92
2022/10/24 07:09:55;;;;;;;2.47;0.38;;;14.50;99.90;;;;;;5079998;28;20052;-91
2022/10/24 07:12:27;;;;;;;3.03;0.50;;;14.60;99.90;;;;;;5083316;28;20557;-91
2022/10/24 07:14:52;;;;;;;2.03;0.40;;;15.20;99.90;;;;;;5049555;28;20066;-91
2022/10/24 07:17:19;;;;;;;1.05;0.30;;;14.60;99.90;;;;;;5060143;28;20086;-85
2022/10/24 07:19:45;;;;;;;2.97;0.60;;;14.70;99.90;;;;;;5076073;28;20497;-89
2022/10/24 07:22:11;;;;;;;1.75;0.30;;;14.70;99.90;;;;;;5056809;28;20073;-93
2022/10/24 07:24:36;;;;;;;1.50;0.40;;;14.80;99.90;;;;;;5057192;28;20055;-90
2022/10/24 07:27:02;;;;;;;2.28;0.50;;;14.80;99.90;;;;;;5074996;28;20044;-87
2022/10/24 07:29:31;;;;;;;3.58;0.50;;;15.00;99.90;;;;;;5076016;28;20037;-90
2022/10/24 07:31:58;;;;;;;2.38;0.63;;;14.80;99.90;;;;;;5066686;28;20055;-94
2022/10/24 07:34:24;;;;;;;1.70;0.40;;;14.80;99.90;;;;;;5091479;28;20059;-91
2022/10/24 07:36:54;;;;;;;2.72;0.40;;;15.50;99.90;;;;;;5079454;28;20120;-92
2022/10/24 07:39:22;;;;;;;0.75;0.30;;;15.00;99.90;;;;;;5067845;28;20048;-91
2022/10/24 07:41:47;;;;;;;2.47;0.32;;;15.00;99.90;;;;;;5077539;28;20138;-92
2022/10/24 07:44:13;;;;;;;1.33;0.47;;;15.10;99.90;;;;;;5057912;28;20098;-96
2022/10/24 07:46:41;;;;;;;1.85;0.40;;;15.20;99.90;;;;;;5057983;28;20052;-94
2022/10/24 07:49:07;;;;;;;6.15;0.50;;;15.20;99.90;;;;;;5057723;28;20056;-90
2022/10/24 07:51:33;;;;;;;2.67;0.40;;;15.30;99.90;;;;;;5057228;28;20048;-93
2022/10/24 07:54:00;;;;;;;4.90;0.50;;;15.40;99.90;;;;;;5075474;28;20583;-94
2022/10/24 07:56:26;;;;;;;2.22;0.45;;;15.40;99.90;;;;;;5075237;28;20044;-93
2022/10/24 07:58:52;;;;;;;5.35;0.50;;;15.40;99.90;;;;;;5060087;28;20075;-92
2022/10/24 08:01:28;;;;;;;1.25;0.43;;;15.40;99.90;;;;;;5076298;28;20051;-91
2022/10/24 08:03:56;;;;;;;5.25;0.40;;;16.10;99.90;;;;;;5057889;28;20040;-91
2022/10/24 08:06:27;;;;;;;2.35;0.40;;;15.50;99.90;;;;;;5063281;28;20083;-89
2022/10/24 08:08:52;;;;;;;3.83;0.50;;;15.30;99.90;;;;;;5058844;28;20121;-93
2022/10/24 08:11:28;;;;;;;2.08;0.40;;;15.60;99.90;;;;;;5079616;28;20139;-94
2022/10/24 08:13:56;;;;;;;2.83;0.40;;;15.70;99.90;;;;;;5059375;28;20048;-91
2022/10/24 08:16:22;;;;;;;0.90;0.38;;;15.70;99.90;;;;;;5064308;28;20049;-87
2022/10/24 08:18:51;;;;;;;3.05;0.40;;;15.70;99.90;;;;;;5059922;28;20045;-92
2022/10/24 08:21:40;;;;;;;4.18;0.30;;;15.90;99.90;;;;;;5097845;22;20036;-86
2022/10/24 08:24:09;;;;;;;4.25;0.47;;;15.90;99.90;;;;;;5076130;28;20052;-88
2022/10/24 08:26:40;;;;;;;2.28;0.40;;;15.90;99.90;;;;;;5089703;28;20071;-90
2022/10/24 08:29:10;;;;;;;2.03;0.40;;;15.90;99.90;;;;;;5085614;28;20044;-94
2022/10/24 08:31:37;;;;;;;3.70;0.60;;;16.00;99.90;;;;;;5066339;28;20074;-92
2022/10/24 08:34:05;;;;;;;3.15;0.30;;;16.10;99.90;;;;;;5054103;28;20365;-87
2022/10/24 08:36:33;;;;;;;1.75;0.55;;;16.10;99.90;;;;;;5066467;28;20131;-95
2022/10/24 08:38:59;;;;;;;2.08;0.32;;;16.20;99.90;;;;;;5077497;28;20459;-94
2022/10/24 08:41:30;;;;;;;2.90;0.40;;;16.20;99.90;;;;;;5074820;28;20404;-91
2022/10/24 08:44:01;;;;;;;1.30;0.40;;;16.50;99.90;;;;;;5054648;28;20041;-92
2022/10/24 08:46:47;;;;;;;6.95;0.40;;;16.20;99.90;;;;;;5056869;28;20048;-92
2022/10/24 08:49:32;;;;;;;2.08;0.47;;;16.30;99.90;;;;;;5055518;28;20083;-95
2022/10/24 08:52:13;;;;;;;2.40;0.50;;;16.30;99.90;;;;;;5056519;28;20041;-94
2022/10/24 08:54:42;;;;;;;2.40;0.43;;;16.40;99.90;;;;;;5072363;28;20094;-91
2022/10/24 08:57:21;;;;;;;1.48;0.30;;;16.50;99.90;;;;;;5074895;28;20102;-90
2022/10/24 08:59:49;;;;;;;3.60;0.50;;;16.50;99.90;;;;;;5074631;28;20115;-94
2022/10/24 09:02:20;;;;;;;4.18;0.40;;;16.40;99.90;;;;;;5072096;28;20109;-93
2022/10/24 09:04:57;;;;;;;3.58;0.30;;;16.40;99.90;;;;;;5074648;28;20064;-93
2022/10/24 09:07:24;;;;;;;1.98;0.40;;;16.30;99.90;;;;;;5073594;28;20047;-93
2022/10/24 09:09:57;;;;;;;2.90;0.50;;;16.40;99.90;;;;;;5074126;28;20044;-91
2022/10/24 09:12:25;;;;;;;1.85;0.30;;;16.70;99.90;;;;;;5064911;28;20532;-88
2022/10/24 09:14:58;;;;;;;4.03;0.80;;;16.50;99.90;;;;;;5055392;28;20044;-91
2022/10/24 09:17:35;;;;;;;3.33;0.50;;;16.40;99.90;;;;;;5088895;28;20052;-89
2022/10/24 09:20:16;;;;;;;6.38;0.50;;;16.50;99.90;;;;;;5073391;28;20127;-89
2022/10/24 09:22:43;;;;;;;3.65;0.30;;;16.50;99.90;;;;;;5061377;28;20053;-90
2022/10/24 09:25:16;;;;;;;1.88;0.40;;;16.40;99.90;;;;;;5061877;28;20365;-91
2022/10/24 09:27:42;;;;;;;1.55;0.30;;;16.40;99.90;;;;;;5073272;28;20123;-89
2022/10/24 09:30:19;;;;;;;5.18;0.57;;;16.40;99.90;;;;;;5071133;28;20059;-88
2022/10/24 09:32:46;;;;;;;6.47;0.77;;;16.40;99.90;;;;;;5052252;28;20048;-87
2022/10/24 09:35:23;;;;;;;1.35;0.40;;;16.50;99.90;;;;;;5051813;28;20127;-89
2022/10/24 09:37:54;;;;;;;6.57;0.45;;;16.50;99.90;;;;;;5071740;28;20041;-89
2022/10/24 09:40:32;;;;;;;5.43;0.45;;;16.60;99.90;;;;;;5073454;28;20067;-89
2022/10/24 09:43:12;;;;;;;2.58;0.40;;;16.60;99.90;;;;;;5072390;28;20076;-90
2022/10/24 09:45:40;;;;;;;3.15;0.47;;;16.70;99.90;;;;;;5072285;28;20087;-89
2022/10/24 09:48:20;;;;;;;3.50;0.47;;;17.10;99.90;;;;;;5089395;28;20451;-91
2022/10/24 09:50:48;;;;;;;3.95;0.45;;;16.80;99.90;;;;;;5072127;28;20213;-91
2022/10/24 09:53:30;;;;;;;4.47;0.57;;;16.90;99.90;;;;;;5058253;28;20057;-92
2022/10/24 09:55:59;;;;;;;1.20;0.30;;;17.00;99.90;;;;;;5052394;28;20040;-91
2022/10/24 09:58:31;;;;;;;2.67;0.40;;;17.00;99.90;;;;;;5053363;28;20062;-91
2022/10/24 10:01:15;;;;;;;8.35;0.82;;;17.10;99.90;;;;;;5070650;28;20048;-89
2022/10/24 10:03:41;;;;;;;3.63;0.65;;;17.20;99.90;;;;;;5074954;28;20134;-88
2022/10/24 10:06:14;;;;;;;3.50;0.35;;;17.20;99.90;;;;;;5065883;28;20036;-89
2022/10/24 10:08:47;;;;;;;2.50;0.35;;;17.10;99.90;;;;;;5065473;28;20118;-92
2022/10/24 10:11:13;;;;;;;1.85;0.32;;;17.30;99.90;;;;;;5058536;28;20042;-93
2022/10/24 10:13:52;;;;;;;2.42;0.38;;;17.20;99.90;;;;;;5070676;28;20046;-92
2022/10/24 10:16:21;;;;;;;2.03;0.38;;;17.10;99.90;;;;;;5071626;28;20066;-95
2022/10/24 10:18:47;;;;;;;3.75;0.50;;;17.10;99.90;;;;;;5079110;28;20064;-88
2022/10/24 10:21:19;;;;;;;4.20;0.60;;;17.00;99.90;;;;;;5074946;28;20052;-93
2022/10/24 10:23:47;;;;;;;3.00;0.40;;;17.00;99.90;;;;;;5071241;28;20061;-93
2022/10/24 10:26:44;;;;;;;4.05;0.40;;;17.00;99.90;;;;;;5064338;28;20040;-93
2022/10/24 10:29:16;;;;;;;4.47;0.50;;;17.00;99.90;;;;;;5071660;28;20489;-94
2022/10/24 10:31:48;;;;;;;1.95;0.50;;;16.90;99.90;;;;;;5070173;28;20056;-91
2022/10/24 10:34:42;;;;;;;3.97;0.50;;;17.10;99.90;;;;;;5066105;28;20043;-93
2022/10/24 10:37:10;;;;;;;2.28;0.30;;;17.10;99.90;;;;;;5066620;28;20464;-93
2022/10/24 10:40:14;;;;;;;3.22;1.02;;;17.10;99.90;;;;;;5063321;28;20043;-92
2022/10/24 10:43:13;;;;;;;4.75;0.50;;;17.10;99.90;;;;;;5065265;28;20133;-88
2022/10/24 10:46:10;;;;;;;2.03;0.40;;;17.00;99.90;;;;;;5078402;28;20040;-94
2022/10/24 10:49:14;;;;;;;4.10;0.40;;;16.90;99.90;;;;;;5024457;28;20045;-91
2022/10/24 10:51:50;;;;;;;3.42;0.38;;;16.70;99.90;;;;;;5004856;28;20153;-94
2022/10/24 10:54:31;;;;;;;3.63;0.50;;;16.80;99.90;;;;;;5005020;28;20172;-90
2022/10/24 10:57:34;;;;;;;3.58;0.40;;;16.50;99.90;;;;;;5004059;28;20085;-88
2022/10/24 11:00:22;;;;;;;2.17;0.40;;;16.40;99.90;;;;;;5018643;28;20057;-93
2022/10/24 11:03:09;;;;;;;2.42;0.32;;;16.30;99.90;;;;;;4997378;28;20101;-94
2022/10/24 11:05:49;;;;;;;4.85;0.88;;;16.20;99.90;;;;;;4999801;28;20609;-95
2022/10/24 11:08:33;;;;;;;4.40;0.47;;;16.10;99.90;;;;;;5023873;28;20037;-94
2022/10/24 11:11:05;;;;;;;3.00;0.40;;;16.20;99.90;;;;;;5005508;28;20107;-91
2022/10/24 11:14:11;;;;;;;6.22;0.60;;;16.30;99.90;;;;;;4998411;28;20116;-90
2022/10/24 11:16:57;;;;;;;5.18;0.57;;;16.50;99.90;;;;;;4960843;28;20114;-91
2022/10/24 11:19:46;;;;;;;4.20;0.47;;;16.70;99.90;;;;;;5019485;22;20068;-90
2022/10/24 11:22:24;;;;;;;4.13;0.50;;;16.60;99.90;;;;;;5078008;28;20040;-94
2022/10/24 11:25:00;;;;;;;2.65;0.32;;;16.80;99.90;;;;;;5073277;28;20072;-93
2022/10/24 11:27:35;;;;;;;4.05;0.40;;;16.80;99.90;;;;;;5068179;28;20053;-92
2022/10/24 11:30:12;;;;;;;2.80;0.30;;;16.90;99.90;;;;;;5086473;23;20044;-91
2022/10/24 11:32:53;;;;;;;3.72;0.52;;;17.20;99.90;;;;;;5110531;28;20044;-89
2022/10/24 11:35:28;;;;;;;3.85;0.55;;;16.80;99.90;;;;;;5097398;28;20040;-91
2022/10/24 11:38:07;;;;;;;7.55;0.60;;;16.90;99.90;;;;;;5098568;28;20047;-92
2022/10/24 11:40:34;;;;;;;4.57;0.40;;;17.00;99.90;;;;;;5085855;28;20048;-93
2022/10/24 11:43:48;;;;;;;2.38;0.38;;;16.70;99.90;;;;;;5080895;28;20051;-92
2022/10/24 11:46:19;;;;;;;3.42;0.40;;;16.70;99.90;;;;;;5039205;28;20057;-91
2022/10/24 11:49:27;;;;;;;2.42;0.40;;;16.70;99.90;;;;;;5050210;28;20041;-92
2022/10/24 12:03:03;;;;;;;3.90;0.60;;;16.40;99.90;;;;;;5058290;28;20084;-93
2022/10/24 12:05:49;;;;;;;4.20;0.70;;;16.50;99.90;;;;;;5054744;28;20179;-91
2022/10/24 12:08:51;;;;;;;4.60;1.35;;;16.50;99.90;;;;;;5036787;28;20140;-92
2022/10/24 12:14:51;;;;;;;3.45;0.45;;;16.60;99.90;;;;;;5008761;28;20088;-90
2022/10/24 12:17:57;;;;;;;4.00;0.40;;;16.80;99.90;;;;;;5019398;28;20073;-90
2022/10/24 12:20:24;;;;;;;4.43;0.40;;;16.80;99.90;;;;;;5005505;28;20136;-91
2022/10/24 12:22:51;;;;;;;6.05;0.57;;;16.80;99.90;;;;;;5019621;28;20098;-94
2022/10/24 12:25:28;;;;;;;2.85;0.30;;;16.80;99.90;;;;;;5049411;28;20118;-91
2022/10/24 12:28:01;;;;;;;5.00;0.40;;;17.00;99.90;;;;;;5055723;28;20044;-88
2022/10/24 12:30:30;;;;;;;3.78;1.17;;;17.00;99.90;;;;;;5070202;28;20133;-89
2022/10/24 12:33:09;;;;;;;4.70;0.32;;;17.00;99.90;;;;;;5055225;28;20059;-91
2022/10/24 12:41:31;;;;;;;4.35;0.65;;;16.90;99.90;;;;;;5206049;22;20156;-91
2022/10/24 12:44:36;;;;;;;2.38;0.30;;;16.90;99.90;;;;;;5091954;28;20429;-90
2022/10/24 12:47:30;;;;;;;4.40;0.40;;;16.90;99.90;;;;;;5067471;28;20051;-93
2022/10/24 12:50:20;;;;;;;2.67;0.40;;;17.20;99.90;;;;;;5076480;28;20093;-92
2022/10/24 12:52:46;;;;;;;3.03;0.45;;;16.90;99.90;;;;;;5051872;28;20041;-91
2022/10/24 12:58:14;;;;;;;7.63;0.60;;;16.90;99.90;;;;;;5051247;28;20497;-89
2022/10/24 13:00:56;;;;;;;5.20;0.73;;;16.90;99.90;;;;;;5021319;28;20053;-89
2022/10/24 13:03:41;;;;;;;4.22;0.40;;;16.80;99.90;;;;;;5052273;28;20053;-91
2022/10/24 13:06:19;;;;;;;4.93;0.68;;;16.70;99.90;;;;;;5036167;28;20048;-92
2022/10/24 13:09:23;;;;;;;3.75;0.32;;;16.70;99.90;;;;;;5030113;28;20052;-93
2022/10/24 13:11:54;;;;;;;2.75;0.50;;;16.70;99.90;;;;;;5043295;22;20467;-91
2022/10/24 13:15:08;;;;;;;2.58;0.40;;;16.80;99.90;;;;;;5062989;28;20081;-90
2022/10/24 13:17:42;;;;;;;11.93;0.93;;;16.80;99.90;;;;;;4987505;28;20062;-90
2022/10/24 13:20:14;;;;;;;1.67;0.40;;;17.00;99.90;;;;;;4989191;28;20126;-93
2022/10/24 13:22:40;;;;;;;4.53;0.50;;;17.00;99.90;;;;;;5003961;28;20047;-89
2022/10/24 13:25:45;;;;;;;3.78;0.45;;;17.00;99.90;;;;;;4985417;28;20077;-91
2022/10/24 13:28:21;;;;;;;1.27;0.40;;;17.00;99.90;;;;;;4982921;28;20046;-92
2022/10/24 13:30:48;;;;;;;2.42;0.30;;;17.10;99.90;;;;;;4985587;28;20101;-88
2022/10/24 13:33:37;;;;;;;1.85;0.43;;;17.10;99.90;;;;;;4979049;28;20077;-90
2022/10/24 13:36:09;;;;;;;1.95;0.30;;;17.10;99.90;;;;;;4945022;29;20543;-92
2022/10/24 13:38:46;;;;;;;3.83;0.30;;;17.60;99.90;;;;;;4928534;29;20607;-93
2022/10/24 13:41:41;;;;;;;2.72;0.40;;;17.00;99.90;;;;;;4903259;29;20048;-90
2022/10/24 13:47:49;;;;;;;;;;;16.90;99.90;;;;;;4824154;29;20460;-91